Time;durP1;ratioP1;P1;durP2;ratioP2;P2;SDS_P1;SDS_P2;PMS_P1;PMS_P2;Temp;Humidity;BMP_temperature;BMP_pressure;BME280_temperature;BME280_humidity;BME280_pressure;Samples;Min_cycle;Max_cycle;Signal;HPM_P1;HPM_P2
2022/08/01 00:01:39;;;;;;;;;2.00;2.00;;;;;25.48;48.56;101184.97;4877110;29;45485;-65
2022/08/01 00:04:04;;;;;;;;;1.00;1.00;;;;;25.51;48.43;101203.19;4876238;29;45525;-67
2022/08/01 00:06:30;;;;;;;;;2.75;1.75;;;;;25.48;48.92;101206.59;4843888;29;45620;-66
2022/08/01 00:08:55;;;;;;;;;1.00;1.00;;;;;25.52;49.10;101213.28;4843869;29;47981;-64
2022/08/01 00:11:21;;;;;;;;;1.00;1.00;;;;;25.49;48.94;101211.09;4877326;29;45809;-65
2022/08/01 00:13:46;;;;;;;;;1.00;1.00;;;;;25.37;48.86;101187.09;4844735;29;45393;-67
2022/08/01 00:16:12;;;;;;;;;1.00;1.00;;;;;25.49;48.98;101200.69;4860160;29;45398;-67
2022/08/01 00:18:37;;;;;;;;;1.50;1.00;;;;;25.51;49.04;101206.00;4840089;29;46391;-65
2022/08/01 00:21:03;;;;;;;;;1.00;1.00;;;;;25.44;49.08;101197.94;4841530;29;45691;-65
2022/08/01 00:23:29;;;;;;;;;1.00;1.00;;;;;25.39;49.31;101196.03;4858181;29;45463;-64
2022/08/01 00:25:54;;;;;;;;;0.25;0.25;;;;;25.36;49.43;101195.81;4841627;29;45529;-64
2022/08/01 00:28:20;;;;;;;;;0.25;0.25;;;;;25.14;49.33;101167.16;4857900;29;45841;-68
2022/08/01 00:30:45;;;;;;;;;0.25;0.25;;;;;25.35;48.91;101199.78;4848798;29;45386;-64
2022/08/01 00:33:11;;;;;;;;;2.75;2.25;;;;;25.29;49.41;101185.78;4862970;29;45519;-65
2022/08/01 00:35:36;;;;;;;;;2.25;1.25;;;;;25.33;49.19;101197.25;4864242;29;45389;-65
2022/08/01 00:38:02;;;;;;;;;0.00;0.00;;;;;25.36;49.56;101190.19;4844855;29;48724;-65
2022/08/01 00:40:27;;;;;;;;;1.00;1.00;;;;;25.36;49.21;101181.78;4829343;29;45386;-65
2022/08/01 00:42:53;;;;;;;;;1.50;1.50;;;;;25.29;49.03;101171.75;4835574;29;45389;-64
2022/08/01 00:45:18;;;;;;;;;1.50;1.50;;;;;25.09;49.23;101161.63;4848446;29;45379;-63
2022/08/01 00:47:44;;;;;;;;;2.00;1.25;;;;;24.99;49.79;101134.53;4864020;29;45297;-64
2022/08/01 00:50:09;;;;;;;;;1.00;1.00;;;;;25.21;50.00;101183.66;4863456;29;45636;-63
2022/08/01 00:52:35;;;;;;;;;1.00;1.00;;;;;25.12;50.22;101179.81;4863948;29;45405;-64
2022/08/01 00:55:00;;;;;;;;;3.75;2.75;;;;;25.11;49.96;101169.75;4864134;29;45303;-63
2022/08/01 00:57:26;;;;;;;;;2.00;2.00;;;;;25.04;49.85;101156.91;4863632;29;46590;-64
2022/08/01 00:59:52;;;;;;;;;1.00;1.00;;;;;25.24;49.78;101174.63;4863564;29;45288;-64
2022/08/01 01:02:17;;;;;;;;;2.00;1.00;;;;;25.23;49.61;101181.38;4864311;29;45853;-64
2022/08/01 01:04:43;;;;;;;;;0.25;0.25;;;;;25.17;49.59;101172.19;4863799;29;45361;-64
2022/08/01 01:07:22;;;;;;;;;2.00;1.00;;;;;25.14;49.92;101174.78;4863716;29;46517;-63
2022/08/01 01:10:36;;;;;;;;;1.00;1.00;;;;;25.07;49.97;101177.94;4880308;29;45938;-64
2022/08/01 01:13:25;;;;;;;;;0.00;0.00;;;;;25.06;50.01;101169.81;4860329;29;45858;-64
2022/08/01 01:15:59;;;;;;;;;0.00;0.00;;;;;25.11;49.95;101179.00;4865982;29;45335;-63
2022/08/01 01:18:30;;;;;;;;;0.00;0.00;;;;;24.98;49.46;101155.28;4866864;29;45589;-64
2022/08/01 01:21:18;;;;;;;;;0.60;0.40;;;;;25.16;49.74;101178.09;4866703;29;45420;-64
2022/08/01 01:23:59;;;;;;;;;0.00;0.00;;;;;25.00;49.46;101155.00;4883469;29;45317;-64
2022/08/01 01:26:55;;;;;;;;;2.00;2.00;;;;;25.07;49.57;101177.09;4884053;29;45448;-63
2022/08/01 01:29:27;;;;;;;;;1.00;1.00;;;;;24.78;50.04;101145.13;4868685;29;46816;-63
2022/08/01 01:32:18;;;;;;;;;2.20;0.00;;;;;24.95;50.37;101169.09;4867572;29;46015;-64
2022/08/01 01:34:44;;;;;;;;;1.00;1.00;;;;;25.00;50.16;101172.69;4882925;29;45431;-63
2022/08/01 01:37:14;;;;;;;;;0.00;0.00;;;;;25.03;49.87;101186.13;4851681;29;45371;-63
2022/08/01 01:39:40;;;;;;;;;0.80;0.80;;;;;25.04;50.19;101176.56;4850840;29;45499;-64
2022/08/01 01:42:06;;;;;;;;;1.80;0.80;;;;;25.04;50.07;101172.94;4866580;29;45354;-63
2022/08/01 01:44:32;;;;;;;;;1.00;1.00;;;;;24.82;50.36;101142.59;4851448;29;45285;-64
2022/08/01 01:46:57;;;;;;;;;2.00;2.00;;;;;25.00;50.10;101169.88;4866532;29;45343;-63
2022/08/01 01:49:24;;;;;;;;;1.00;1.00;;;;;25.01;50.15;101167.91;4850721;29;46146;-64
2022/08/01 01:51:50;;;;;;;;;1.40;1.40;;;;;25.07;49.89;101169.50;4850981;29;45525;-64
2022/08/01 01:54:16;;;;;;;;;1.00;1.00;;;;;25.10;50.10;101166.13;4851185;29;45427;-63
2022/08/01 01:56:48;;;;;;;;;1.25;1.00;;;;;25.00;50.07;101150.22;4883427;29;45371;-64
2022/08/01 01:59:20;;;;;;;;;1.00;1.00;;;;;24.99;50.21;101154.19;4867035;29;45416;-63
2022/08/01 02:01:49;;;;;;;;;0.00;0.00;;;;;24.89;50.35;101137.47;4867279;29;45267;-64
2022/08/01 02:04:16;;;;;;;;;1.00;1.00;;;;;24.91;50.37;101163.25;4808665;29;45570;-64
2022/08/01 02:06:42;;;;;;;;;0.00;0.00;;;;;24.89;50.93;101165.53;4847927;29;45392;-63
2022/08/01 02:09:08;;;;;;;;;0.00;0.00;;;;;24.98;50.38;101163.72;4862534;29;46696;-62
2022/08/01 02:11:33;;;;;;;;;1.00;1.00;;;;;24.97;50.42;101159.25;4831814;29;45353;-64
2022/08/01 02:14:02;;;;;;;;;0.00;0.00;;;;;24.94;50.35;101153.41;4831957;29;45412;-63
2022/08/01 02:16:29;;;;;;;;;1.00;1.00;;;;;25.01;50.17;101176.31;4847473;29;45496;-63
2022/08/01 02:18:55;;;;;;;;;1.40;1.40;;;;;24.98;50.35;101162.91;4831722;29;46960;-63
2022/08/01 02:21:25;;;;;;;;;1.00;1.00;;;;;24.96;50.39;101162.38;4846824;29;45343;-63
2022/08/01 02:23:51;;;;;;;;;2.00;1.00;;;;;24.90;50.49;101153.16;4847529;29;45470;-64
2022/08/01 02:26:17;;;;;;;;;0.00;0.00;;;;;24.94;50.35;101154.25;4847329;29;45289;-63
2022/08/01 02:28:50;;;;;;;;;1.00;1.00;;;;;24.90;50.70;101150.34;4846679;29;46459;-64
2022/08/01 02:31:17;;;;;;;;;1.40;1.40;;;;;24.77;50.46;101133.06;4847188;29;45447;-64
2022/08/01 02:33:50;;;;;;;;;0.60;0.60;;;;;24.88;50.56;101153.44;4862541;29;45385;-64
2022/08/01 02:36:15;;;;;;;;;0.20;0.20;;;;;24.76;50.66;101139.00;4847573;29;45436;-64
2022/08/01 02:38:42;;;;;;;;;1.00;1.00;;;;;24.88;50.65;101163.84;4832736;29;45615;-64
2022/08/01 02:41:09;;;;;;;;;0.00;0.00;;;;;24.70;51.37;101152.22;4849822;29;45490;-63
2022/08/01 02:43:37;;;;;;;;;0.00;0.00;;;;;24.80;51.16;101156.94;4850302;29;45356;-63
2022/08/01 02:46:03;;;;;;;;;1.00;1.00;;;;;24.80;51.41;101165.34;4865746;29;45520;-64
2022/08/01 02:48:28;;;;;;;;;0.50;0.50;;;;;24.73;51.73;101156.41;4849933;29;45703;-64
2022/08/01 02:50:57;;;;;;;;;0.75;0.75;;;;;24.75;51.52;101157.78;4849759;29;45444;-63
2022/08/01 02:53:23;;;;;;;;;1.00;1.00;;;;;24.77;51.26;101152.72;4849853;29;45436;-62
2022/08/01 02:55:48;;;;;;;;;0.00;0.00;;;;;24.82;51.49;101154.69;4865642;29;45554;-64
2022/08/01 02:58:15;;;;;;;;;1.00;0.00;;;;;24.63;51.38;101132.13;4849812;29;45950;-63
2022/08/01 03:00:42;;;;;;;;;0.60;0.60;;;;;24.62;51.86;101133.25;4864957;29;45452;-64
2022/08/01 03:03:07;;;;;;;;;0.80;0.80;;;;;24.74;51.67;101153.31;4849921;29;45744;-63
2022/08/01 03:05:33;;;;;;;;;2.00;1.00;;;;;24.70;51.70;101138.22;4865324;29;45481;-64
2022/08/01 03:07:58;;;;;;;;;1.00;1.00;;;;;24.76;51.45;101150.22;4849407;29;45563;-64
2022/08/01 03:10:24;;;;;;;;;1.00;1.00;;;;;24.67;51.57;101137.97;4849265;29;45479;-63
2022/08/01 03:12:50;;;;;;;;;0.50;0.50;;;;;24.76;51.56;101153.03;4849640;29;45443;-63
2022/08/01 03:15:16;;;;;;;;;2.00;2.00;;;;;24.52;51.68;101128.59;4849765;29;45383;-63
2022/08/01 03:17:43;;;;;;;;;2.80;1.60;;;;;24.69;51.72;101170.22;4849252;29;45686;-63
2022/08/01 03:20:10;;;;;;;;;1.00;1.00;;;;;24.44;51.93;101143.28;4849614;29;45368;-63
2022/08/01 03:22:36;;;;;;;;;0.20;0.20;;;;;24.59;51.96;101161.94;4834261;29;45465;-63
2022/08/01 03:25:01;;;;;;;;;2.00;2.00;;;;;24.58;52.20;101152.66;4865003;29;45612;-64
2022/08/01 03:27:26;;;;;;;;;1.00;1.00;;;;;24.61;52.15;101159.66;4849213;29;45405;-63
2022/08/01 03:29:54;;;;;;;;;1.25;1.25;;;;;24.67;51.95;101171.63;4864692;29;45488;-65
2022/08/01 03:32:20;;;;;;;;;0.80;0.80;;;;;24.45;52.23;101139.34;4849291;29;45393;-64
2022/08/01 03:34:46;;;;;;;;;0.00;0.00;;;;;24.49;52.42;101165.69;4865061;29;45310;-64
2022/08/01 03:37:36;;;;;;;;;2.75;1.00;;;;;24.36;52.37;101140.00;4849092;29;46774;-64
2022/08/01 03:40:09;;;;;;;;;2.00;2.00;;;;;24.53;52.91;101169.53;4858937;29;45497;-63
2022/08/01 03:42:41;;;;;;;;;1.80;1.80;;;;;24.40;53.10;101154.25;4849288;29;45698;-63
2022/08/01 03:45:12;;;;;;;;;1.00;1.00;;;;;24.33;53.06;101146.19;4849766;29;45384;-63
2022/08/01 03:47:37;;;;;;;;;2.00;1.00;;;;;24.41;53.81;101163.50;4849762;29;46103;-63
2022/08/01 03:50:04;;;;;;;;;1.25;1.25;;;;;24.27;53.72;101152.16;4849075;29;45401;-64
2022/08/01 03:52:30;;;;;;;;;0.00;0.00;;;;;24.37;53.56;101163.25;4849043;29;45360;-64
2022/08/01 03:54:56;;;;;;;;;0.25;0.25;;;;;24.39;53.30;101162.97;4849265;29;45308;-64
2022/08/01 03:57:22;;;;;;;;;2.00;0.60;;;;;24.44;53.46;101160.94;4848709;29;45949;-64
2022/08/01 03:59:48;;;;;;;;;1.40;1.40;;;;;24.47;53.21;101159.50;4848652;29;45329;-65
2022/08/01 04:02:14;;;;;;;;;0.00;0.00;;;;;24.45;53.01;101167.38;4848662;29;45343;-64
2022/08/01 04:04:40;;;;;;;;;0.80;0.80;;;;;24.45;53.27;101168.22;4848907;29;45438;-63
2022/08/01 04:07:07;;;;;;;;;1.75;0.75;;;;;24.45;52.81;101167.38;4863634;29;46313;-63
2022/08/01 04:09:32;;;;;;;;;1.20;1.20;;;;;24.41;52.73;101161.53;4848599;29;45575;-63
2022/08/01 04:11:59;;;;;;;;;1.50;1.50;;;;;24.40;52.86;101159.88;4880627;29;45707;-63
2022/08/01 04:14:26;;;;;;;;;0.00;0.00;;;;;24.11;52.75;101121.44;4881011;29;45335;-63
2022/08/01 04:16:52;;;;;;;;;1.20;0.20;;;;;24.42;52.90;101162.34;4863837;29;46880;-63
2022/08/01 04:19:17;;;;;;;;;2.00;0.25;;;;;24.43;52.95;101150.03;4880502;29;45312;-63
2022/08/01 04:21:43;;;;;;;;;0.50;0.50;;;;;24.25;52.61;101124.41;4863774;29;45314;-64
2022/08/01 04:24:11;;;;;;;;;2.00;2.00;;;;;24.44;52.65;101158.13;4880887;29;45314;-63
2022/08/01 04:26:37;;;;;;;;;0.80;0.80;;;;;24.35;52.59;101137.47;4848332;29;46820;-63
2022/08/01 04:29:04;;;;;;;;;1.00;1.00;;;;;24.28;52.46;101126.59;4847989;29;45477;-63
2022/08/01 04:31:30;;;;;;;;;1.00;1.00;;;;;24.38;52.65;101138.84;4848941;29;45332;-64
2022/08/01 04:33:55;;;;;;;;;0.00;0.00;;;;;24.40;52.74;101137.44;4848418;29;45573;-64
2022/08/01 04:36:22;;;;;;;;;1.00;1.00;;;;;24.42;52.85;101142.72;4847701;29;45404;-63
2022/08/01 04:38:48;;;;;;;;;1.00;1.00;;;;;24.43;52.90;101147.22;4853327;28;45870;-64
2022/08/01 04:41:14;;;;;;;;;1.00;1.00;;;;;24.44;52.74;101152.50;4859934;29;45408;-64
2022/08/01 04:43:41;;;;;;;;;0.80;0.80;;;;;24.41;52.54;101136.28;4843800;29;45441;-63
2022/08/01 04:46:07;;;;;;;;;0.80;0.80;;;;;24.44;53.01;101146.91;4848459;29;46027;-63
2022/08/01 04:48:33;;;;;;;;;2.00;2.00;;;;;24.28;53.04;101128.56;4863168;29;45483;-64
2022/08/01 04:50:58;;;;;;;;;1.00;1.00;;;;;24.12;53.58;101109.09;4863471;29;45414;-63
2022/08/01 04:53:25;;;;;;;;;0.25;0.25;;;;;24.31;53.75;101144.78;4863427;29;45405;-64
2022/08/01 04:55:51;;;;;;;;;1.60;1.60;;;;;24.32;53.41;101152.06;4864105;29;46446;-63
2022/08/01 04:58:16;;;;;;;;;1.00;1.00;;;;;24.27;53.60;101160.56;4863425;29;45272;-63
2022/08/01 05:00:42;;;;;;;;;1.00;1.00;;;;;24.23;53.71;101158.34;4847751;29;45332;-63
2022/08/01 05:03:07;;;;;;;;;1.25;1.25;;;;;24.23;53.91;101163.94;4880328;29;45507;-64
2022/08/01 05:05:33;;;;;;;;;1.00;1.00;;;;;24.15;54.02;101160.94;4880188;29;45731;-65
2022/08/01 05:08:00;;;;;;;;;0.00;0.00;;;;;24.16;54.51;101169.06;4879973;29;45284;-64
2022/08/01 05:10:25;;;;;;;;;0.40;0.40;;;;;24.05;54.13;101161.81;4880290;29;45445;-63
2022/08/01 05:12:51;;;;;;;;;2.00;2.00;;;;;23.98;54.44;101153.78;4864152;29;45459;-64
2022/08/01 05:15:17;;;;;;;;;1.00;1.00;;;;;24.08;53.41;101158.47;4880273;29;45986;-64
2022/08/01 05:17:42;;;;;;;;;1.00;1.00;;;;;24.18;53.60;101191.19;4863341;29;45315;-63
2022/08/01 05:20:08;;;;;;;;;2.00;2.00;;;;;24.16;53.75;101177.47;4880563;29;45407;-64
2022/08/01 05:22:34;;;;;;;;;1.00;1.00;;;;;24.07;53.72;101162.44;4863468;29;45382;-64
2022/08/01 05:24:59;;;;;;;;;2.00;2.00;;;;;24.00;53.86;101161.91;4880099;29;46122;-64
2022/08/01 05:27:25;;;;;;;;;2.00;2.00;;;;;24.09;53.87;101185.38;4880108;29;45344;-64
2022/08/01 05:29:50;;;;;;;;;1.00;1.00;;;;;24.19;53.91;101184.47;4880524;29;45304;-64
2022/08/01 05:32:16;;;;;;;;;0.50;0.50;;;;;24.26;53.32;101184.13;4863559;29;45639;-63
2022/08/01 05:34:41;;;;;;;;;0.00;0.00;;;;;24.17;53.26;101167.09;4879984;29;45488;-64
2022/08/01 05:37:07;;;;;;;;;0.75;0.75;;;;;24.31;53.63;101186.88;4879970;29;45406;-64
2022/08/01 05:39:32;;;;;;;;;1.00;1.00;;;;;24.25;53.55;101176.81;4863390;29;45468;-63
2022/08/01 05:41:58;;;;;;;;;1.00;1.00;;;;;24.12;53.86;101162.34;4880322;29;45577;-64
2022/08/01 05:44:23;;;;;;;;;0.75;0.75;;;;;23.98;54.44;101152.91;4879990;29;45428;-64
2022/08/01 05:46:49;;;;;;;;;1.50;1.50;;;;;24.08;54.03;101173.31;4880131;29;45443;-64
2022/08/01 05:49:14;;;;;;;;;2.75;2.75;;;;;24.16;53.49;101183.06;4879998;29;45376;-64
2022/08/01 05:51:40;;;;;;;;;1.00;1.00;;;;;24.22;53.30;101192.28;4880169;29;45601;-64
2022/08/01 05:54:05;;;;;;;;;1.00;1.00;;;;;24.23;53.13;101191.97;4863015;29;48224;-63
2022/08/01 05:56:31;;;;;;;;;2.00;2.00;;;;;24.20;53.35;101174.91;4879974;29;45331;-63
2022/08/01 05:58:56;;;;;;;;;1.00;1.00;;;;;24.12;53.52;101170.75;4879885;29;45403;-64
2022/08/01 06:01:22;;;;;;;;;0.00;0.00;;;;;24.09;52.88;101168.56;4879896;29;45353;-63
2022/08/01 06:03:47;;;;;;;;;1.00;1.00;;;;;24.26;53.40;101198.16;4849918;29;46474;-63
2022/08/01 06:06:14;;;;;;;;;0.00;0.00;;;;;24.25;52.85;101199.25;4866512;29;45429;-64
2022/08/01 06:08:40;;;;;;;;;2.00;0.00;;;;;24.24;53.52;101206.84;4850414;29;45405;-66
2022/08/01 06:11:06;;;;;;;;;0.00;0.00;;;;;24.20;53.12;101198.19;4835258;29;45267;-64
2022/08/01 06:13:32;;;;;;;;;1.00;1.00;;;;;24.10;52.63;101192.66;4850071;29;45470;-64
2022/08/01 06:15:57;;;;;;;;;1.00;1.00;;;;;24.09;53.62;101203.06;4865844;29;45373;-64
2022/08/01 06:18:23;;;;;;;;;0.00;0.00;;;;;23.91;53.65;101173.72;4882440;29;45337;-64
2022/08/01 06:20:48;;;;;;;;;1.00;1.00;;;;;24.09;53.18;101200.25;4866094;29;45376;-65
2022/08/01 06:23:15;;;;;;;;;1.00;1.00;;;;;23.90;53.45;101169.25;4882491;29;45611;-63
2022/08/01 06:25:44;;;;;;;;;3.00;1.00;;;;;23.89;53.29;101180.72;4882123;29;45448;-64
2022/08/01 06:28:09;;;;;;;;;2.00;0.40;;;;;23.98;53.36;101204.22;4882528;29;45316;-63
2022/08/01 06:30:35;;;;;;;;;1.75;1.00;;;;;23.85;53.50;101172.06;4850266;29;45276;-64
2022/08/01 06:33:00;;;;;;;;;0.25;0.25;;;;;24.02;53.25;101199.69;4882299;29;45437;-64
2022/08/01 06:35:28;;;;;;;;;1.25;1.00;;;;;24.09;53.31;101200.25;4882467;29;45364;-63
2022/08/01 06:37:53;;;;;;;;;1.00;1.00;;;;;24.04;53.43;101193.78;4882535;29;45460;-63
2022/08/01 06:40:19;;;;;;;;;0.75;0.75;;;;;24.17;53.28;101207.16;4882315;29;45467;-62
2022/08/01 06:42:45;;;;;;;;;2.50;1.75;;;;;24.18;53.07;101197.63;4865255;29;45945;-63
2022/08/01 06:45:11;;;;;;;;;1.00;1.00;;;;;24.07;53.22;101170.84;4850349;29;45414;-63
2022/08/01 06:47:37;;;;;;;;;1.60;1.60;;;;;24.04;53.43;101166.63;4882175;29;45402;-63
2022/08/01 06:50:04;;;;;;;;;1.00;1.00;;;;;24.25;53.27;101199.25;4850227;29;45673;-62
2022/08/01 06:52:29;;;;;;;;;1.40;1.40;;;;;24.29;52.82;101200.34;4849977;29;47464;-64
2022/08/01 06:54:55;;;;;;;;;2.75;1.00;;;;;24.21;52.97;101194.25;4882327;29;45379;-62
2022/08/01 06:57:21;;;;;;;;;1.00;1.00;;;;;24.28;53.13;101199.50;4865399;29;45410;-62
2022/08/01 06:59:46;;;;;;;;;1.40;1.40;;;;;24.32;53.23;101200.59;4834638;29;45621;-64
2022/08/01 07:02:12;;;;;;;;;2.50;2.50;;;;;24.28;53.00;101199.50;4849616;29;46993;-65
2022/08/01 07:04:37;;;;;;;;;3.00;2.00;;;;;24.37;53.00;101194.09;4865216;29;45372;-66
2022/08/01 07:07:03;;;;;;;;;2.00;2.00;;;;;24.42;53.06;101193.22;4882072;29;45356;-65
2022/08/01 07:09:28;;;;;;;;;1.00;1.00;;;;;24.31;53.12;101181.25;4865152;29;45538;-66
2022/08/01 07:11:55;;;;;;;;;1.00;1.00;;;;;24.49;52.80;101197.34;4851164;29;46697;-66
2022/08/01 07:14:21;;;;;;;;;2.80;2.80;;;;;24.50;52.64;101192.59;4848618;29;45285;-65
2022/08/01 07:16:46;;;;;;;;;8.50;6.75;;;;;24.56;52.34;101201.78;4849687;29;45405;-66
2022/08/01 07:19:12;;;;;;;;;1.25;1.25;;;;;24.68;52.36;101207.84;4848837;29;45499;-64
2022/08/01 07:21:38;;;;;;;;;1.25;0.75;;;;;24.71;52.12;101200.78;4880933;29;45476;-61
2022/08/01 07:24:04;;;;;;;;;1.80;1.80;;;;;24.78;51.79;101206.88;4864640;29;45469;-64
2022/08/01 07:26:29;;;;;;;;;3.20;2.00;;;;;24.82;51.80;101205.19;4881819;29;45286;-66
2022/08/01 07:28:55;;;;;;;;;3.25;1.25;;;;;24.67;51.72;101178.09;4881917;29;45415;-67
2022/08/01 07:31:20;;;;;;;;;1.25;1.25;;;;;24.88;51.78;101205.97;4864760;29;46176;-63
2022/08/01 07:33:46;;;;;;;;;3.00;1.25;;;;;24.81;51.91;101206.31;4865112;29;45384;-62
2022/08/01 07:36:12;;;;;;;;;1.50;1.50;;;;;24.84;51.02;101208.53;4881841;29;45392;-62
2022/08/01 07:38:37;;;;;;;;;2.00;2.00;;;;;24.73;51.56;101204.97;4865056;29;45722;-62
2022/08/01 07:41:02;;;;;;;;;3.00;3.00;;;;;24.76;51.39;101211.97;4881072;29;46374;-63
2022/08/01 07:43:28;;;;;;;;;3.50;3.00;;;;;24.57;51.22;101190.28;4881553;29;45434;-64
2022/08/01 07:45:53;;;;;;;;;4.25;4.25;;;;;24.64;51.88;101201.13;4882045;29;45247;-63
2022/08/01 07:48:23;;;;;;;;;4.00;4.00;;;;;24.66;51.72;101221.31;4881777;29;45376;-63
2022/08/01 07:50:49;;;;;;;;;3.00;3.00;;;;;24.69;51.89;101229.13;4881698;29;46402;-65
2022/08/01 07:53:14;;;;;;;;;2.75;2.75;;;;;24.73;51.87;101230.22;4864899;29;45337;-62
2022/08/01 07:55:40;;;;;;;;;4.75;3.00;;;;;24.69;51.39;101219.88;4864612;29;45306;-62
2022/08/01 07:58:06;;;;;;;;;3.00;3.00;;;;;24.82;51.53;101235.22;4881863;29;45237;-48
2022/08/01 08:00:31;;;;;;;;;4.25;4.25;;;;;24.85;52.12;101234.63;4881131;29;45717;-51
2022/08/01 08:02:59;;;;;;;;;4.25;3.00;;;;;24.70;51.29;101219.59;4864284;29;45850;-52
2022/08/01 08:05:26;;;;;;;;;2.00;2.00;;;;;24.81;51.53;101230.75;4881531;29;45316;-52
2022/08/01 08:07:55;;;;;;;;;4.20;4.20;;;;;24.75;51.61;101227.97;4848902;29;45506;-51
2022/08/01 08:10:21;;;;;;;;;5.00;4.00;;;;;24.74;51.59;101231.06;4854965;29;46668;-54
2022/08/01 08:12:48;;;;;;;;;3.80;3.80;;;;;24.80;51.44;101235.50;4820792;29;45576;-49
2022/08/01 08:15:13;;;;;;;;;2.00;2.00;;;;;24.81;51.32;101234.38;4852427;29;45894;-51
2022/08/01 08:17:39;;;;;;;;;3.25;3.25;;;;;24.77;51.28;101231.28;4875445;29;46053;-52
2022/08/01 08:20:06;;;;;;;;;5.25;5.25;;;;;24.89;51.33;101235.69;4858142;29;46526;-52
2022/08/01 08:22:31;;;;;;;;;4.40;3.80;;;;;25.04;50.93;101238.31;4858224;29;45514;-54
2022/08/01 08:24:57;;;;;;;;;3.00;2.50;;;;;25.16;50.74;101226.69;4873396;29;45529;-57
2022/08/01 08:27:22;;;;;;;;;4.00;4.00;;;;;25.23;50.54;101237.53;4876604;29;45482;-61
2022/08/01 08:29:48;;;;;;;;;4.00;4.00;;;;;25.26;50.60;101230.50;4876346;29;46711;-54
2022/08/01 08:32:13;;;;;;;;;3.75;3.75;;;;;25.14;50.11;101209.28;4875342;29;45431;-56
2022/08/01 08:34:39;;;;;;;;;4.50;3.25;;;;;25.31;49.94;101245.28;4858368;29;45426;-56
2022/08/01 08:37:05;;;;;;;;;6.25;5.00;;;;;25.16;50.71;101220.22;4876783;29;45432;-57
2022/08/01 08:39:31;;;;;;;;;4.00;3.75;;;;;25.28;50.07;101234.69;4875985;29;45596;-57
2022/08/01 08:41:58;;;;;;;;;4.20;3.00;;;;;25.30;49.28;101221.16;4876203;29;45477;-57
2022/08/01 08:44:24;;;;;;;;;4.00;3.80;;;;;25.31;50.16;101222.00;4858177;29;45895;-56
2022/08/01 08:46:51;;;;;;;;;5.00;5.00;;;;;25.22;50.07;101201.31;4859510;29;45661;-55
2022/08/01 08:49:21;;;;;;;;;5.20;5.20;;;;;25.29;50.05;101177.34;4874339;29;45935;-54
2022/08/01 08:51:50;;;;;;;;;7.40;4.60;;;;;25.67;49.93;101217.91;4876087;29;45423;-54
2022/08/01 08:54:17;;;;;;;;;3.40;3.40;;;;;25.89;48.92;101213.63;4859403;29;45615;-56
2022/08/01 08:56:43;;;;;;;;;3.00;3.00;;;;;25.94;47.24;101205.13;4873561;29;45511;-54
2022/08/01 08:59:11;;;;;;;;;2.00;2.00;;;;;25.81;47.76;101207.56;4875889;29;45725;-57
2022/08/01 09:01:36;;;;;;;;;2.80;2.80;;;;;25.48;47.48;101189.75;4859027;29;45413;-58
2022/08/01 09:04:03;;;;;;;;;4.00;3.25;;;;;25.66;48.19;101211.44;4857568;29;45856;-56
2022/08/01 09:06:29;;;;;;;;;3.40;2.40;;;;;25.71;48.07;101214.16;4876453;29;45742;-52
2022/08/01 09:08:55;;;;;;;;;7.60;5.20;;;;;25.80;47.69;101208.72;4873972;29;45446;-55
2022/08/01 09:11:21;;;;;;;;;3.60;2.80;;;;;25.75;46.69;101214.41;4874674;29;45561;-54
2022/08/01 09:14:04;;;;;;;;;1.75;1.75;;;;;25.44;47.53;101186.72;4874753;29;45510;-54
2022/08/01 09:16:31;;;;;;;;;4.80;4.00;;;;;25.69;47.30;101215.63;4867656;29;45446;-53
2022/08/01 09:19:18;;;;;;;;;2.20;2.20;;;;;25.77;47.42;101228.16;4857229;29;46425;-56
2022/08/01 09:22:00;;;;;;;;;2.00;2.00;;;;;25.67;47.19;101223.53;4873602;29;45522;-54
2022/08/01 09:24:27;;;;;;;;;2.60;2.60;;;;;25.51;47.24;101232.13;4876425;29;45576;-58
2022/08/01 09:26:53;;;;;;;;;4.80;3.80;;;;;25.42;47.91;101231.97;4859324;29;45405;-56
2022/08/01 09:29:23;;;;;;;;;3.25;3.00;;;;;25.53;48.08;101234.66;4858726;29;46915;-51
2022/08/01 09:31:49;;;;;;;;;2.20;2.20;;;;;25.55;47.95;101229.56;4875871;29;46026;-50
2022/08/01 09:34:15;;;;;;;;;2.20;2.20;;;;;25.53;48.29;101223.44;4873397;29;45433;-54
2022/08/01 09:37:11;;;;;;;;;2.40;2.40;;;;;25.52;48.24;101227.34;4843744;29;45602;-52
2022/08/01 09:39:42;;;;;;;;;3.00;3.00;;;;;25.51;48.01;101231.31;4849737;29;46517;-51
2022/08/01 09:42:24;;;;;;;;;3.20;3.20;;;;;25.51;48.26;101220.06;4834695;29;45459;-54
2022/08/01 09:44:50;;;;;;;;;2.40;2.40;;;;;25.31;47.44;101194.75;4862118;29;45460;-56
2022/08/01 09:47:20;;;;;;;;;3.75;2.25;;;;;25.24;47.85;101211.13;4861196;29;45559;-56
2022/08/01 09:49:45;;;;;;;;;2.60;1.00;;;;;25.22;48.14;101226.59;4862393;29;45501;-54
2022/08/01 09:52:14;;;;;;;;;2.75;2.75;;;;;24.97;48.63;101232.22;4861381;29;45801;-58
2022/08/01 09:54:41;;;;;;;;;2.60;2.60;;;;;24.94;49.46;101237.59;4874908;29;45755;-56
2022/08/01 09:57:14;;;;;;;;;4.80;3.80;;;;;25.06;49.10;101237.22;4877982;29;45485;-53
2022/08/01 09:59:43;;;;;;;;;4.00;2.00;;;;;25.27;48.55;101223.72;4878496;29;46795;-55
2022/08/01 10:02:12;;;;;;;;;3.20;3.20;;;;;25.39;48.31;101218.53;4878637;29;45368;-56
2022/08/01 10:04:45;;;;;;;;;2.80;2.80;;;;;25.49;48.23;101225.16;4877638;29;45426;-53
2022/08/01 10:07:11;;;;;;;;;2.60;2.60;;;;;25.60;48.88;101223.88;4878611;29;45997;-56
2022/08/01 10:09:37;;;;;;;;;3.00;2.00;;;;;25.60;47.88;101207.03;4876913;29;45861;-55
2022/08/01 10:12:03;;;;;;;;;2.75;2.75;;;;;25.69;47.84;101226.84;4859583;29;46507;-58
2022/08/01 10:14:29;;;;;;;;;3.80;3.60;;;;;25.60;47.91;101226.69;4877076;29;45599;-54
2022/08/01 10:16:56;;;;;;;;;2.00;2.00;;;;;25.75;47.45;101233.22;4869568;28;45925;-55
2022/08/01 10:19:23;;;;;;;;;2.00;2.00;;;;;25.85;47.46;101227.47;4878050;29;45898;-57
2022/08/01 10:21:50;;;;;;;;;3.00;3.00;;;;;25.88;47.48;101207.16;4857548;29;45409;-57
2022/08/01 10:24:16;;;;;;;;;1.40;1.40;;;;;26.17;46.43;101231.47;4859672;29;45525;-56
2022/08/01 10:26:41;;;;;;;;;2.25;2.25;;;;;26.29;46.77;101228.19;4859396;29;45532;-55
2022/08/01 10:29:07;;;;;;;;;2.00;2.00;;;;;26.43;46.62;101230.22;4840748;29;46554;-56
2022/08/01 10:31:32;;;;;;;;;4.00;3.00;;;;;26.53;46.22;101238.47;4876888;29;45443;-57
2022/08/01 10:33:59;;;;;;;;;4.00;4.00;;;;;26.53;46.00;101227.22;4874794;29;45435;-56
2022/08/01 10:36:25;;;;;;;;;4.80;3.20;;;;;26.59;46.02;101228.81;4873323;29;45732;-52
2022/08/01 10:38:50;;;;;;;;;5.00;4.00;;;;;26.58;45.55;101220.66;4858528;29;46539;-58
2022/08/01 10:41:15;;;;;;;;;3.50;3.50;;;;;26.59;45.37;101225.13;4858855;29;45413;-51
2022/08/01 10:43:42;;;;;;;;;1.50;1.50;;;;;26.35;45.39;101210.09;4810787;29;45931;-49
2022/08/01 10:46:07;;;;;;;;;2.20;2.20;;;;;26.42;45.87;101214.47;4845024;29;45429;-52
2022/08/01 10:48:41;;;;;;;;;2.00;2.00;;;;;26.31;46.14;101225.91;4860104;29;46094;-57
2022/08/01 10:51:07;;;;;;;;;2.80;2.80;;;;;26.25;46.14;101232.78;4859973;29;45858;-56
2022/08/01 10:53:33;;;;;;;;;3.00;3.00;;;;;26.15;46.34;101208.44;4877501;29;45360;-55
2022/08/01 10:56:02;;;;;;;;;4.20;4.20;;;;;26.17;46.55;101222.19;4877124;29;45495;-55
2022/08/01 10:58:38;;;;;;;;;6.20;4.80;;;;;26.23;46.60;101226.59;4875150;29;45672;-54
2022/08/01 11:01:22;;;;;;;;;5.00;3.40;;;;;26.18;46.33;101209.78;4876659;29;45843;-54
2022/08/01 11:04:01;;;;;;;;;3.80;3.80;;;;;26.46;46.12;101218.34;4877805;29;45509;-53
2022/08/01 11:06:32;;;;;;;;;3.00;3.00;;;;;26.60;46.09;101204.28;4878058;29;45507;-50
2022/08/01 11:08:58;;;;;;;;;3.20;3.20;;;;;26.76;45.34;101210.47;4876942;29;47503;-49
2022/08/01 11:11:23;;;;;;;;;4.50;4.50;;;;;26.89;45.35;101218.09;4876445;29;45361;-52
2022/08/01 11:13:58;;;;;;;;;4.25;4.25;;;;;27.03;45.52;101211.66;4878201;29;45818;-54
2022/08/01 11:16:31;;;;;;;;;5.00;4.00;;;;;27.07;44.37;101201.44;4869016;29;45595;-53
2022/08/01 11:18:56;;;;;;;;;3.00;3.00;;;;;27.18;44.95;101222.63;4877597;29;45499;-53
2022/08/01 11:21:26;;;;;;;;;4.00;4.00;;;;;27.19;44.42;101218.66;4860419;29;45422;-52
2022/08/01 11:23:53;;;;;;;;;5.60;5.60;;;;;27.34;44.23;101216.63;4876542;29;45447;-53
2022/08/01 11:26:18;;;;;;;;;6.20;4.00;;;;;27.31;44.20;101189.94;4877793;29;45567;-49